createdAt,value
2022-08-01T00:01:01.180Z,3.30
2022-08-01T00:04:04.800Z,3.40
2022-08-01T00:07:07.707Z,3.20
2022-08-01T00:10:14.464Z,3.20
2022-08-01T00:13:17.428Z,3.20
2022-08-01T00:16:23.602Z,3.10
2022-08-01T00:19:26.502Z,3.10
2022-08-01T00:22:29.566Z,3.20
2022-08-01T00:25:34.013Z,3.30
2022-08-01T00:28:37.606Z,3.40
2022-08-01T00:31:40.469Z,3.10
2022-08-01T00:34:43.416Z,2.90
2022-08-01T00:37:46.308Z,3.30
2022-08-01T00:40:49.747Z,3.00
2022-08-01T00:43:52.662Z,3.10
2022-08-01T00:46:55.502Z,2.90
2022-08-01T00:49:58.350Z,2.60
2022-08-01T00:53:02.064Z,3.10
2022-08-01T00:56:05.456Z,2.80
2022-08-01T00:59:10.423Z,2.80
2022-08-01T01:02:14.622Z,3.20
2022-08-01T01:05:18.933Z,3.30
2022-08-01T01:08:28.107Z,2.70
2022-08-01T01:11:45.272Z,3.50
2022-08-01T01:15:06.263Z,3.00
2022-08-01T01:18:18.323Z,3.30
2022-08-01T01:21:24.794Z,3.20
2022-08-01T01:25:00.301Z,2.90
2022-08-01T01:28:34.608Z,2.80
2022-08-01T01:31:47.175Z,2.70
2022-08-01T01:34:54.552Z,2.70
2022-08-01T01:38:03.116Z,2.90
2022-08-01T01:41:07.314Z,2.80
2022-08-01T01:44:11.593Z,2.40
2022-08-01T01:47:16.278Z,2.80
2022-08-01T01:50:22.121Z,3.10
2022-08-01T01:53:28.053Z,3.20
2022-08-01T01:56:32.082Z,3.30
2022-08-01T01:59:38.693Z,3.30
2022-08-01T02:02:43.447Z,3.00
2022-08-01T02:05:48.151Z,3.10
2022-08-01T02:08:53.193Z,3.40
2022-08-01T02:12:08.660Z,3.60
2022-08-01T02:15:14.284Z,3.20
2022-08-01T02:18:17.207Z,3.20
2022-08-01T02:21:45.175Z,3.20
2022-08-01T02:24:55.937Z,3.50
2022-08-01T02:28:14.569Z,3.40
2022-08-01T02:31:21.608Z,3.30
2022-08-01T02:34:29.265Z,3.60
2022-08-01T02:37:35.662Z,4.00
2022-08-01T02:40:42.791Z,3.90
2022-08-01T02:43:53.247Z,3.60
2022-08-01T02:47:05.803Z,3.40
2022-08-01T02:50:13.453Z,3.80
2022-08-01T02:53:21.874Z,3.10
2022-08-01T02:56:35.821Z,2.80
2022-08-01T02:59:41.257Z,3.60
2022-08-01T03:02:46.230Z,3.40
2022-08-01T03:05:50.001Z,3.90
2022-08-01T03:08:54.689Z,3.90
2022-08-01T03:12:01.933Z,4.20
2022-08-01T03:15:06.919Z,3.60
2022-08-01T03:18:15.272Z,3.50
2022-08-01T03:21:21.702Z,3.60
2022-08-01T03:24:27.171Z,3.40
2022-08-01T03:27:30.669Z,3.60
2022-08-01T03:30:34.879Z,3.70
2022-08-01T03:33:37.740Z,3.50
2022-08-01T03:36:50.702Z,4.20
2022-08-01T03:39:59.955Z,3.50
2022-08-01T03:43:17.194Z,3.30
2022-08-01T03:46:30.002Z,3.70
2022-08-01T03:49:39.180Z,3.30
2022-08-01T03:52:46.213Z,3.60
2022-08-01T03:55:50.817Z,3.20
2022-08-01T03:58:54.642Z,3.10
2022-08-01T04:01:58.746Z,3.10
2022-08-01T04:05:02.860Z,3.30
2022-08-01T04:08:05.831Z,3.60
2022-08-01T04:11:10.353Z,3.10
2022-08-01T04:14:13.339Z,3.70
2022-08-01T04:17:17.478Z,3.20
2022-08-01T04:20:23.014Z,3.60
2022-08-01T04:23:28.596Z,2.90
2022-08-01T04:26:35.871Z,3.60
2022-08-01T04:29:39.612Z,3.10
2022-08-01T04:32:46.074Z,3.50
2022-08-01T04:36:02.814Z,3.20
2022-08-01T04:39:07.820Z,3.50
2022-08-01T04:42:12.201Z,3.40
2022-08-01T04:45:15.099Z,3.30
2022-08-01T04:48:20.427Z,2.90
2022-08-01T04:51:25.933Z,3.60
2022-08-01T04:54:30.773Z,3.70
2022-08-01T04:57:40.792Z,3.70
2022-08-01T05:00:43.841Z,4.60
2022-08-01T05:03:46.684Z,4.30
2022-08-01T05:06:49.548Z,4.60
2022-08-01T05:09:52.473Z,4.10
2022-08-01T05:12:55.484Z,4.80
2022-08-01T05:15:58.424Z,5.50
2022-08-01T05:19:03.621Z,10.40
2022-08-01T05:22:08.274Z,7.20
2022-08-01T05:25:12.247Z,7.20
2022-08-01T05:28:19.056Z,7.40
2022-08-01T05:31:22.232Z,7.40
2022-08-01T05:34:25.290Z,7.80
2022-08-01T05:37:28.226Z,7.30
2022-08-01T05:40:31.115Z,7.30
2022-08-01T05:43:34.315Z,7.20
2022-08-01T05:46:37.642Z,7.00
2022-08-01T05:49:40.532Z,7.70
2022-08-01T05:52:43.537Z,7.60
2022-08-01T05:55:46.489Z,6.80
2022-08-01T05:58:51.496Z,6.90
2022-08-01T06:01:54.650Z,6.40
2022-08-01T06:04:58.121Z,5.90
2022-08-01T06:08:01.251Z,5.40
2022-08-01T06:11:06.233Z,5.40
2022-08-01T06:14:09.277Z,4.60
2022-08-01T06:17:12.274Z,8.80
2022-08-01T06:20:15.514Z,5.70
2022-08-01T06:23:32.616Z,4.60
2022-08-01T06:26:38.261Z,4.80
2022-08-01T06:29:41.297Z,4.40
2022-08-01T06:32:56.947Z,3.90
2022-08-01T06:35:59.972Z,3.80
2022-08-01T06:39:04.506Z,3.40
2022-08-01T06:42:07.917Z,3.00
2022-08-01T06:45:12.623Z,2.90
2022-08-01T06:48:15.658Z,2.70
2022-08-01T06:51:20.923Z,2.70
2022-08-01T06:54:24.633Z,2.70
2022-08-01T06:57:27.901Z,2.60
2022-08-01T07:00:32.599Z,2.90
2022-08-01T07:03:53.656Z,3.00
2022-08-01T07:06:58.176Z,2.60
2022-08-01T07:10:01.598Z,2.20
2022-08-01T07:13:04.586Z,2.40
2022-08-01T07:16:07.483Z,2.30
2022-08-01T07:19:10.389Z,2.10
2022-08-01T07:22:15.053Z,2.60
2022-08-01T07:25:26.438Z,2.10
2022-08-01T07:28:30.144Z,2.00
2022-08-01T07:31:32.984Z,1.90
2022-08-01T07:34:35.887Z,2.30
2022-08-01T07:37:42.165Z,2.00
2022-08-01T07:40:51.830Z,2.00
2022-08-01T07:43:58.024Z,1.70
2022-08-01T07:47:05.348Z,2.00
2022-08-01T07:50:08.842Z,1.80
2022-08-01T07:53:12.382Z,2.10
2022-08-01T07:56:15.798Z,2.10
2022-08-01T07:59:26.207Z,2.10
2022-08-01T08:02:29.525Z,2.40
2022-08-01T08:05:58.371Z,2.20
2022-08-01T08:09:00.408Z,2.00
2022-08-01T08:12:03.791Z,2.20
2022-08-01T08:15:07.742Z,2.30
2022-08-01T08:18:10.731Z,2.30
2022-08-01T08:21:13.749Z,2.00
2022-08-01T08:24:25.918Z,1.90
2022-08-01T08:27:29.997Z,1.80
2022-08-01T08:30:33.139Z,2.10
2022-08-01T08:33:36.281Z,2.20
2022-08-01T08:36:39.536Z,2.10
2022-08-01T08:39:51.063Z,2.20
2022-08-01T08:42:54.327Z,1.70
2022-08-01T08:45:59.267Z,2.00
2022-08-01T08:49:06.492Z,2.00
2022-08-01T08:52:10.856Z,2.20
2022-08-01T08:55:15.713Z,1.90
2022-08-01T08:58:20.557Z,2.00
2022-08-01T09:01:24.374Z,2.20
2022-08-01T09:04:27.679Z,2.20
2022-08-01T09:07:30.824Z,2.20
2022-08-01T09:10:33.756Z,1.90
2022-08-01T09:13:38.205Z,3.00
2022-08-01T09:16:49.145Z,2.20
2022-08-01T09:19:54.845Z,2.60
2022-08-01T09:22:57.941Z,2.60
2022-08-01T09:26:00.882Z,2.50
2022-08-01T09:29:10.401Z,2.90
2022-08-01T09:32:16.122Z,2.50
2022-08-01T09:35:30.182Z,3.00
2022-08-01T09:38:34.677Z,3.20
2022-08-01T09:41:40.327Z,3.60
2022-08-01T09:44:54.843Z,3.40
2022-08-01T09:48:10.600Z,3.10
2022-08-01T09:51:58.585Z,3.40
2022-08-01T09:54:54.286Z,3.30
2022-08-01T09:58:01.824Z,3.20
2022-08-01T10:01:06.036Z,3.20
2022-08-01T10:04:15.734Z,3.30
2022-08-01T10:07:21.526Z,2.90
2022-08-01T10:11:12.179Z,3.00
2022-08-01T10:14:17.709Z,3.40
2022-08-01T10:17:22.784Z,3.60
2022-08-01T10:20:30.938Z,4.00
2022-08-01T10:23:39.747Z,3.20
2022-08-01T10:26:45.297Z,3.30
2022-08-01T10:30:05.302Z,3.40
2022-08-01T10:33:19.911Z,3.40
2022-08-01T10:36:40.950Z,3.50
2022-08-01T10:39:46.897Z,3.00
2022-08-01T10:42:51.522Z,3.10
2022-08-01T10:45:56.314Z,3.00
2022-08-01T10:49:16.913Z,3.00
2022-08-01T10:52:20.987Z,2.90
2022-08-01T10:55:26.078Z,2.90
2022-08-01T10:58:30.526Z,2.80
2022-08-01T11:01:37.563Z,3.10
2022-08-01T11:04:46.702Z,3.20
2022-08-01T11:07:56.181Z,2.90
2022-08-01T11:11:02.866Z,3.30
2022-08-01T11:14:13.636Z,3.30
2022-08-01T11:17:42.041Z,3.30
2022-08-01T11:21:57.956Z,2.80
2022-08-01T11:24:55.449Z,3.10
2022-08-01T11:28:15.312Z,2.80
2022-08-01T11:31:22.806Z,2.50
2022-08-01T11:34:57.695Z,2.70
2022-08-01T11:38:31.059Z,2.80
2022-08-01T11:41:37.678Z,2.60
2022-08-01T11:44:52.447Z,3.20
2022-08-01T11:47:57.005Z,2.70
2022-08-01T11:51:02.234Z,2.80
2022-08-01T11:54:05.656Z,2.80
2022-08-01T11:57:22.955Z,2.70
2022-08-01T12:00:27.111Z,2.60
2022-08-01T12:03:34.567Z,2.70
2022-08-01T12:06:38.137Z,3.00
2022-08-01T12:09:45.710Z,2.60
2022-08-01T12:12:54.517Z,2.40
2022-08-01T12:15:59.186Z,2.80
2022-08-01T12:19:02.979Z,2.10
2022-08-01T12:22:14.847Z,2.20
2022-08-01T12:25:18.931Z,2.20
2022-08-01T12:28:22.349Z,2.00
2022-08-01T12:31:35.537Z,2.00
2022-08-01T12:34:41.997Z,2.20
2022-08-01T12:37:50.594Z,2.30
2022-08-01T12:40:54.928Z,2.40
2022-08-01T12:43:58.144Z,2.30
2022-08-01T12:47:02.499Z,2.50
2022-08-01T12:50:12.850Z,2.60
2022-08-01T12:53:17.105Z,2.30
2022-08-01T12:56:33.124Z,2.30
2022-08-01T12:59:36.791Z,2.70
2022-08-01T13:02:42.801Z,2.30
2022-08-01T13:05:53.392Z,3.00
2022-08-01T13:09:05.722Z,2.60
2022-08-01T13:12:12.775Z,2.90
2022-08-01T13:15:20.605Z,3.00
2022-08-01T13:18:26.379Z,2.60
2022-08-01T13:21:52.497Z,3.20
2022-08-01T13:24:53.802Z,3.00
2022-08-01T13:28:16.063Z,3.00
2022-08-01T13:34:35.123Z,2.50
2022-08-01T13:37:39.551Z,3.00
2022-08-01T13:40:42.558Z,2.70
2022-08-01T13:43:57.539Z,2.40
2022-08-01T13:47:14.889Z,2.60
2022-08-01T13:50:19.898Z,2.40
2022-08-01T13:53:22.974Z,2.80
2022-08-01T13:56:28.620Z,2.40
2022-08-01T13:59:31.637Z,2.80
2022-08-01T14:02:35.280Z,2.50
2022-08-01T14:05:38.741Z,2.70
2022-08-01T14:08:46.038Z,2.40
2022-08-01T14:11:50.424Z,2.30
2022-08-01T14:14:54.483Z,2.70
2022-08-01T14:17:57.429Z,2.60
2022-08-01T14:21:05.376Z,2.80
2022-08-01T14:24:09.481Z,2.70
2022-08-01T14:27:12.663Z,2.50
2022-08-01T14:30:15.732Z,2.00
2022-08-01T14:33:18.598Z,2.40
2022-08-01T14:36:30.282Z,2.20
2022-08-01T14:39:34.309Z,2.20
2022-08-01T14:42:39.354Z,2.00
2022-08-01T14:45:42.287Z,2.30
2022-08-01T14:48:45.150Z,2.30
2022-08-01T14:51:48.069Z,2.50
2022-08-01T14:54:50.962Z,2.40
2022-08-01T14:57:54.823Z,2.50
2022-08-01T15:00:59.250Z,2.30
2022-08-01T15:04:04.543Z,2.30
2022-08-01T15:07:07.628Z,2.20
2022-08-01T15:10:10.965Z,2.10
2022-08-01T15:13:13.932Z,2.10
2022-08-01T15:16:16.781Z,2.60
2022-08-01T15:19:19.714Z,2.30
2022-08-01T15:22:24.097Z,2.20
2022-08-01T15:25:41.458Z,2.50
2022-08-01T15:28:45.134Z,2.40
2022-08-01T15:31:48.034Z,2.70
2022-08-01T15:34:51.011Z,2.20
2022-08-01T15:37:53.926Z,2.30
2022-08-01T15:40:56.878Z,2.30
2022-08-01T15:43:59.732Z,2.40
2022-08-01T15:47:03.687Z,2.40
2022-08-01T15:50:08.030Z,2.50
2022-08-01T15:53:11.064Z,2.70
2022-08-01T15:56:14.663Z,3.30
2022-08-01T15:59:18.113Z,3.40
2022-08-01T16:02:21.243Z,3.60
2022-08-01T16:05:24.381Z,3.40
2022-08-01T16:08:27.289Z,3.40
2022-08-01T16:11:30.289Z,3.40
2022-08-01T16:14:33.271Z,3.30
2022-08-01T16:17:40.497Z,3.20
2022-08-01T16:20:47.626Z,3.50
2022-08-01T16:23:52.032Z,3.30
2022-08-01T16:26:55.785Z,3.30
2022-08-01T16:29:58.760Z,3.20
2022-08-01T16:33:06.331Z,3.30
2022-08-01T16:36:24.888Z,2.90
2022-08-01T16:39:30.509Z,3.70
2022-08-01T16:42:36.970Z,3.30
2022-08-01T16:45:42.642Z,3.30
2022-08-01T16:48:46.050Z,3.20
2022-08-01T16:51:49.016Z,3.50
2022-08-01T16:54:51.972Z,3.50
2022-08-01T16:57:57.770Z,3.20
2022-08-01T17:02:01.298Z,3.40
2022-08-01T17:04:24.065Z,3.20
2022-08-01T17:07:27.775Z,3.30
2022-08-01T17:10:31.732Z,2.80
2022-08-01T17:13:34.910Z,3.40
2022-08-01T17:16:38.389Z,2.80
2022-08-01T17:19:41.484Z,2.90
2022-08-01T17:22:44.503Z,3.20
2022-08-01T17:25:47.697Z,2.70
2022-08-01T17:28:50.684Z,2.60
2022-08-01T17:31:54.419Z,2.60
2022-08-01T17:34:57.328Z,2.80
2022-08-01T17:38:00.577Z,2.80
2022-08-01T17:41:03.512Z,3.00
2022-08-01T17:44:07.536Z,2.60
2022-08-01T17:47:10.761Z,3.00
2022-08-01T17:50:13.993Z,2.90
2022-08-01T17:53:20.922Z,2.70
2022-08-01T17:56:26.200Z,2.70
2022-08-01T17:59:29.397Z,3.00
2022-08-01T18:02:32.356Z,3.20
2022-08-01T18:05:37.471Z,3.10
2022-08-01T18:08:42.007Z,3.00
2022-08-01T18:11:45.697Z,3.10
2022-08-01T18:14:48.930Z,3.00
2022-08-01T18:17:52.372Z,3.50
2022-08-01T18:20:55.289Z,3.50
2022-08-01T18:24:02.999Z,3.40
2022-08-01T18:27:06.424Z,3.30
2022-08-01T18:30:10.162Z,3.50
2022-08-01T18:33:13.065Z,3.30
2022-08-01T18:36:31.999Z,3.40
2022-08-01T18:39:36.881Z,3.50
2022-08-01T18:42:42.205Z,3.40
2022-08-01T18:45:45.100Z,3.20
2022-08-01T18:48:48.673Z,3.70
2022-08-01T18:51:52.016Z,3.80
2022-08-01T18:54:55.440Z,3.50
2022-08-01T18:57:58.417Z,4.40
2022-08-01T19:01:01.513Z,4.00
2022-08-01T19:04:04.615Z,4.30
2022-08-01T19:07:08.086Z,4.30
2022-08-01T19:10:12.361Z,3.80
2022-08-01T19:13:16.776Z,4.20
2022-08-01T19:16:19.693Z,4.60
2022-08-01T19:19:27.806Z,5.20
2022-08-01T19:22:31.130Z,4.80
2022-08-01T19:25:34.403Z,5.10
2022-08-01T19:29:02.121Z,4.50
2022-08-01T19:32:07.043Z,4.70
2022-08-01T19:35:12.943Z,4.40
2022-08-01T19:38:16.738Z,4.40
2022-08-01T19:41:19.700Z,4.60
2022-08-01T19:44:24.939Z,5.30
2022-08-01T19:47:51.637Z,5.50
2022-08-01T19:50:52.623Z,4.70
2022-08-01T19:53:58.612Z,5.70
2022-08-01T19:57:06.127Z,6.20
2022-08-01T20:00:10.578Z,7.00
2022-08-01T20:03:28.388Z,8.00
2022-08-01T20:06:33.246Z,7.10
2022-08-01T20:09:39.233Z,6.00
2022-08-01T20:12:42.889Z,6.00
2022-08-01T20:15:46.781Z,4.80
2022-08-01T20:18:50.229Z,4.30
2022-08-01T20:22:02.766Z,4.60
2022-08-01T20:25:09.985Z,4.00
2022-08-01T20:28:13.531Z,4.20
2022-08-01T20:31:19.620Z,3.40
2022-08-01T20:34:24.531Z,3.40
2022-08-01T20:38:01.251Z,3.30
2022-08-01T20:40:53.280Z,3.10
2022-08-01T20:43:57.635Z,2.90
2022-08-01T20:47:05.248Z,3.00
2022-08-01T20:50:53.261Z,2.70
2022-08-01T20:53:52.684Z,3.00
2022-08-01T20:56:59.249Z,2.90
2022-08-01T21:00:06.075Z,2.70
2022-08-01T21:03:15.763Z,3.00
2022-08-01T21:06:26.167Z,3.20
2022-08-01T21:09:39.776Z,2.90
2022-08-01T21:12:59.078Z,3.40
2022-08-01T21:16:22.186Z,3.10
2022-08-01T21:19:27.943Z,3.10
2022-08-01T21:22:41.615Z,3.30
2022-08-01T21:25:44.623Z,3.00
2022-08-01T21:28:54.530Z,3.30
2022-08-01T21:32:13.199Z,3.30
2022-08-01T21:35:19.142Z,3.20
2022-08-01T21:38:24.205Z,3.00
2022-08-01T21:42:03.489Z,3.30
2022-08-01T21:44:54.602Z,3.00
2022-08-01T21:47:59.183Z,3.10
2022-08-01T21:51:14.808Z,3.10
2022-08-01T21:54:45.964Z,3.20
2022-08-01T21:57:48.863Z,3.00
2022-08-01T22:00:57.559Z,3.10
2022-08-01T22:04:03.031Z,2.80
2022-08-01T22:07:10.653Z,3.20
2022-08-01T22:10:16.582Z,2.70
2022-08-01T22:13:19.479Z,2.90
2022-08-01T22:16:23.618Z,2.60
2022-08-01T22:19:32.409Z,2.90
2022-08-01T22:22:52.232Z,3.20
2022-08-01T22:25:56.031Z,2.80
2022-08-01T22:29:00.286Z,3.10
2022-08-01T22:32:03.666Z,3.80
2022-08-01T22:35:12.272Z,3.90
2022-08-01T22:38:18.062Z,4.10
2022-08-01T22:41:26.222Z,4.30
2022-08-01T22:44:40.459Z,4.10
2022-08-01T22:48:00.107Z,4.20
2022-08-01T22:51:09.321Z,4.20
2022-08-01T22:54:14.523Z,3.90
2022-08-01T22:57:55.242Z,4.10
2022-08-01T23:01:01.481Z,4.50
2022-08-01T23:04:05.843Z,4.30
2022-08-01T23:07:10.850Z,4.40
2022-08-01T23:10:13.886Z,5.00
2022-08-01T23:13:17.661Z,4.30
2022-08-01T23:16:21.873Z,4.10
2022-08-01T23:19:26.193Z,4.10
2022-08-01T23:22:32.387Z,4.10
2022-08-01T23:25:37.454Z,3.90
2022-08-01T23:28:41.357Z,4.50
2022-08-01T23:32:03.163Z,4.50
2022-08-01T23:35:07.444Z,4.70
2022-08-01T23:38:11.010Z,4.70
2022-08-01T23:41:16.697Z,5.50
2022-08-01T23:44:19.530Z,5.30
2022-08-01T23:47:23.558Z,4.90
2022-08-01T23:50:27.238Z,4.80
2022-08-01T23:53:31.906Z,4.90
2022-08-01T23:56:34.941Z,5.20
2022-08-01T23:59:53.629Z,5.00
